sensor_id;sensor_type;location;lat;lon;timestamp;P1;durP1;ratioP1;P2;durP2;ratioP2
76107;SDS011;64834;52.516;10.528;2023-09-19T00:00:18;2.38;;;0.70;;
76107;SDS011;64834;52.516;10.528;2023-09-19T00:02:46;2.95;;;1.00;;
76107;SDS011;64834;52.516;10.528;2023-09-19T00:05:17;1.67;;;0.93;;
76107;SDS011;64834;52.516;10.528;2023-09-19T00:07:42;2.50;;;0.77;;
76107;SDS011;64834;52.516;10.528;2023-09-19T00:10:07;3.00;;;0.70;;
76107;SDS011;64834;52.516;10.528;2023-09-19T00:12:34;2.90;;;0.65;;
76107;SDS011;64834;52.516;10.528;2023-09-19T00:15:00;1.92;;;0.63;;
76107;SDS011;64834;52.516;10.528;2023-09-19T00:17:26;5.03;;;0.80;;
76107;SDS011;64834;52.516;10.528;2023-09-19T00:19:55;1.45;;;0.60;;
76107;SDS011;64834;52.516;10.528;2023-09-19T00:22:21;1.00;;;0.45;;
76107;SDS011;64834;52.516;10.528;2023-09-19T00:24:46;1.23;;;0.70;;
76107;SDS011;64834;52.516;10.528;2023-09-19T00:27:11;1.50;;;0.52;;
76107;SDS011;64834;52.516;10.528;2023-09-19T00:29:37;2.00;;;0.60;;
76107;SDS011;64834;52.516;10.528;2023-09-19T00:32:02;1.95;;;0.75;;
76107;SDS011;64834;52.516;10.528;2023-09-19T00:34:28;1.15;;;0.50;;
76107;SDS011;64834;52.516;10.528;2023-09-19T00:36:54;1.77;;;0.50;;
76107;SDS011;64834;52.516;10.528;2023-09-19T00:39:20;1.23;;;0.45;;
76107;SDS011;64834;52.516;10.528;2023-09-19T00:41:47;1.40;;;0.68;;
76107;SDS011;64834;52.516;10.528;2023-09-19T00:44:12;1.58;;;0.55;;
76107;SDS011;64834;52.516;10.528;2023-09-19T00:46:38;2.47;;;0.73;;
76107;SDS011;64834;52.516;10.528;2023-09-19T00:49:04;1.27;;;0.55;;
76107;SDS011;64834;52.516;10.528;2023-09-19T00:51:32;1.38;;;0.50;;
76107;SDS011;64834;52.516;10.528;2023-09-19T00:54:00;2.55;;;0.60;;
76107;SDS011;64834;52.516;10.528;2023-09-19T00:56:27;2.40;;;0.93;;
76107;SDS011;64834;52.516;10.528;2023-09-19T00:58:52;1.35;;;0.73;;
76107;SDS011;64834;52.516;10.528;2023-09-19T01:01:17;1.38;;;0.63;;
76107;SDS011;64834;52.516;10.528;2023-09-19T01:03:44;1.65;;;0.60;;
76107;SDS011;64834;52.516;10.528;2023-09-19T01:06:09;1.73;;;0.88;;
76107;SDS011;64834;52.516;10.528;2023-09-19T01:08:35;1.48;;;0.80;;
76107;SDS011;64834;52.516;10.528;2023-09-19T01:13:56;2.90;;;0.60;;
76107;SDS011;64834;52.516;10.528;2023-09-19T01:22:21;2.13;;;0.70;;
76107;SDS011;64834;52.516;10.528;2023-09-19T01:25:14;2.50;;;1.00;;
76107;SDS011;64834;52.516;10.528;2023-09-19T01:28:04;2.08;;;1.10;;
76107;SDS011;64834;52.516;10.528;2023-09-19T01:30:40;4.18;;;1.45;;
76107;SDS011;64834;52.516;10.528;2023-09-19T01:33:08;1.80;;;1.10;;
76107;SDS011;64834;52.516;10.528;2023-09-19T01:35:37;2.70;;;0.85;;
76107;SDS011;64834;52.516;10.528;2023-09-19T01:38:04;1.75;;;1.05;;
76107;SDS011;64834;52.516;10.528;2023-09-19T01:40:35;1.90;;;1.02;;
76107;SDS011;64834;52.516;10.528;2023-09-19T01:45:47;3.65;;;1.30;;
76107;SDS011;64834;52.516;10.528;2023-09-19T01:50:55;1.88;;;1.33;;
76107;SDS011;64834;52.516;10.528;2023-09-19T01:53:26;3.72;;;1.20;;
76107;SDS011;64834;52.516;10.528;2023-09-19T01:55:56;3.88;;;1.35;;
76107;SDS011;64834;52.516;10.528;2023-09-19T02:01:02;3.28;;;1.85;;
76107;SDS011;64834;52.516;10.528;2023-09-19T02:03:31;3.67;;;1.75;;
76107;SDS011;64834;52.516;10.528;2023-09-19T02:05:56;3.45;;;1.63;;
76107;SDS011;64834;52.516;10.528;2023-09-19T02:08:22;4.68;;;2.17;;
76107;SDS011;64834;52.516;10.528;2023-09-19T02:10:51;3.95;;;1.80;;
76107;SDS011;64834;52.516;10.528;2023-09-19T02:13:18;2.78;;;2.10;;
76107;SDS011;64834;52.516;10.528;2023-09-19T02:15:45;3.78;;;2.30;;
76107;SDS011;64834;52.516;10.528;2023-09-19T02:18:11;4.43;;;2.60;;
76107;SDS011;64834;52.516;10.528;2023-09-19T02:20:37;3.78;;;2.38;;
76107;SDS011;64834;52.516;10.528;2023-09-19T02:23:02;4.15;;;2.53;;
76107;SDS011;64834;52.516;10.528;2023-09-19T02:25:28;5.82;;;3.13;;
76107;SDS011;64834;52.516;10.528;2023-09-19T02:27:54;7.72;;;2.63;;
76107;SDS011;64834;52.516;10.528;2023-09-19T02:30:19;4.53;;;2.88;;
76107;SDS011;64834;52.516;10.528;2023-09-19T02:32:50;6.00;;;3.03;;
76107;SDS011;64834;52.516;10.528;2023-09-19T02:35:16;5.05;;;3.35;;
76107;SDS011;64834;52.516;10.528;2023-09-19T02:37:44;4.90;;;3.38;;
76107;SDS011;64834;52.516;10.528;2023-09-19T02:40:10;6.30;;;3.03;;
76107;SDS011;64834;52.516;10.528;2023-09-19T02:42:44;5.10;;;2.85;;
76107;SDS011;64834;52.516;10.528;2023-09-19T02:45:12;4.43;;;2.80;;
76107;SDS011;64834;52.516;10.528;2023-09-19T02:47:37;6.93;;;3.45;;
76107;SDS011;64834;52.516;10.528;2023-09-19T02:50:04;5.53;;;3.33;;
76107;SDS011;64834;52.516;10.528;2023-09-19T02:52:30;5.97;;;3.60;;
76107;SDS011;64834;52.516;10.528;2023-09-19T02:54:55;7.38;;;3.75;;
76107;SDS011;64834;52.516;10.528;2023-09-19T02:57:21;6.70;;;3.58;;
76107;SDS011;64834;52.516;10.528;2023-09-19T02:59:46;5.05;;;3.13;;
76107;SDS011;64834;52.516;10.528;2023-09-19T03:02:11;4.28;;;3.28;;
76107;SDS011;64834;52.516;10.528;2023-09-19T03:04:37;6.55;;;3.90;;
76107;SDS011;64834;52.516;10.528;2023-09-19T03:07:02;5.13;;;3.58;;
76107;SDS011;64834;52.516;10.528;2023-09-19T03:09:29;5.43;;;4.25;;
76107;SDS011;64834;52.516;10.528;2023-09-19T03:11:54;9.50;;;4.35;;
76107;SDS011;64834;52.516;10.528;2023-09-19T03:14:20;5.40;;;3.90;;
76107;SDS011;64834;52.516;10.528;2023-09-19T03:16:45;5.57;;;3.92;;
76107;SDS011;64834;52.516;10.528;2023-09-19T03:19:10;4.50;;;3.67;;
76107;SDS011;64834;52.516;10.528;2023-09-19T03:21:36;5.10;;;3.85;;
76107;SDS011;64834;52.516;10.528;2023-09-19T03:24:01;6.95;;;4.65;;
76107;SDS011;64834;52.516;10.528;2023-09-19T03:26:27;5.68;;;4.00;;
76107;SDS011;64834;52.516;10.528;2023-09-19T03:28:53;9.13;;;4.63;;
76107;SDS011;64834;52.516;10.528;2023-09-19T03:31:19;6.65;;;4.30;;
76107;SDS011;64834;52.516;10.528;2023-09-19T03:33:44;6.25;;;4.13;;
76107;SDS011;64834;52.516;10.528;2023-09-19T03:36:09;4.78;;;3.90;;
76107;SDS011;64834;52.516;10.528;2023-09-19T03:38:35;8.13;;;4.20;;
76107;SDS011;64834;52.516;10.528;2023-09-19T03:41:00;9.85;;;5.00;;
76107;SDS011;64834;52.516;10.528;2023-09-19T03:43:27;8.82;;;4.20;;
76107;SDS011;64834;52.516;10.528;2023-09-19T03:45:53;6.25;;;4.07;;
76107;SDS011;64834;52.516;10.528;2023-09-19T03:48:19;7.03;;;4.20;;
76107;SDS011;64834;52.516;10.528;2023-09-19T03:50:46;6.18;;;4.57;;
76107;SDS011;64834;52.516;10.528;2023-09-19T03:53:11;6.63;;;4.25;;
76107;SDS011;64834;52.516;10.528;2023-09-19T03:55:37;8.43;;;4.25;;
76107;SDS011;64834;52.516;10.528;2023-09-19T03:58:03;7.15;;;4.40;;
76107;SDS011;64834;52.516;10.528;2023-09-19T04:00:29;7.97;;;4.57;;
76107;SDS011;64834;52.516;10.528;2023-09-19T04:02:55;8.95;;;4.57;;
76107;SDS011;64834;52.516;10.528;2023-09-19T04:05:21;6.07;;;4.22;;
76107;SDS011;64834;52.516;10.528;2023-09-19T04:07:47;10.07;;;5.32;;
76107;SDS011;64834;52.516;10.528;2023-09-19T04:10:12;10.27;;;4.75;;
76107;SDS011;64834;52.516;10.528;2023-09-19T04:12:39;9.63;;;4.40;;
76107;SDS011;64834;52.516;10.528;2023-09-19T04:15:05;7.60;;;4.57;;
76107;SDS011;64834;52.516;10.528;2023-09-19T04:17:31;8.35;;;4.47;;
76107;SDS011;64834;52.516;10.528;2023-09-19T04:19:58;9.10;;;4.30;;
76107;SDS011;64834;52.516;10.528;2023-09-19T04:22:23;6.50;;;4.15;;
76107;SDS011;64834;52.516;10.528;2023-09-19T04:24:48;6.88;;;4.75;;
76107;SDS011;64834;52.516;10.528;2023-09-19T04:27:14;7.00;;;3.47;;
76107;SDS011;64834;52.516;10.528;2023-09-19T04:29:39;8.52;;;4.30;;
76107;SDS011;64834;52.516;10.528;2023-09-19T04:32:06;8.05;;;4.00;;
76107;SDS011;64834;52.516;10.528;2023-09-19T04:34:32;10.65;;;4.53;;
76107;SDS011;64834;52.516;10.528;2023-09-19T04:36:59;7.35;;;3.67;;
76107;SDS011;64834;52.516;10.528;2023-09-19T04:39:25;9.90;;;3.90;;
76107;SDS011;64834;52.516;10.528;2023-09-19T04:41:51;6.05;;;3.67;;
76107;SDS011;64834;52.516;10.528;2023-09-19T04:44:17;6.38;;;3.53;;
76107;SDS011;64834;52.516;10.528;2023-09-19T04:46:43;6.72;;;3.78;;
76107;SDS011;64834;52.516;10.528;2023-09-19T04:49:09;7.05;;;3.92;;
76107;SDS011;64834;52.516;10.528;2023-09-19T04:51:34;8.25;;;3.97;;
76107;SDS011;64834;52.516;10.528;2023-09-19T04:54:01;7.30;;;3.65;;
76107;SDS011;64834;52.516;10.528;2023-09-19T04:56:27;9.93;;;4.05;;
76107;SDS011;64834;52.516;10.528;2023-09-19T04:58:53;9.77;;;3.65;;
76107;SDS011;64834;52.516;10.528;2023-09-19T05:01:19;6.55;;;3.75;;
76107;SDS011;64834;52.516;10.528;2023-09-19T05:03:47;5.40;;;3.45;;
76107;SDS011;64834;52.516;10.528;2023-09-19T05:06:17;8.90;;;4.15;;
76107;SDS011;64834;52.516;10.528;2023-09-19T05:11:14;7.50;;;3.53;;
76107;SDS011;64834;52.516;10.528;2023-09-19T05:13:39;10.13;;;4.20;;
76107;SDS011;64834;52.516;10.528;2023-09-19T05:16:04;10.07;;;3.47;;
76107;SDS011;64834;52.516;10.528;2023-09-19T05:18:30;10.60;;;4.38;;
76107;SDS011;64834;52.516;10.528;2023-09-19T05:20:56;5.57;;;3.50;;
76107;SDS011;64834;52.516;10.528;2023-09-19T05:23:22;10.23;;;3.47;;
76107;SDS011;64834;52.516;10.528;2023-09-19T05:25:47;7.45;;;3.45;;
76107;SDS011;64834;52.516;10.528;2023-09-19T05:28:13;9.95;;;3.50;;
76107;SDS011;64834;52.516;10.528;2023-09-19T05:30:40;8.05;;;3.47;;
76107;SDS011;64834;52.516;10.528;2023-09-19T05:33:06;6.00;;;3.33;;
76107;SDS011;64834;52.516;10.528;2023-09-19T05:35:32;8.18;;;3.42;;
76107;SDS011;64834;52.516;10.528;2023-09-19T05:37:58;7.60;;;3.47;;
76107;SDS011;64834;52.516;10.528;2023-09-19T05:40:23;7.35;;;4.00;;
76107;SDS011;64834;52.516;10.528;2023-09-19T05:42:50;8.40;;;3.58;;
76107;SDS011;64834;52.516;10.528;2023-09-19T05:45:16;8.50;;;4.10;;
76107;SDS011;64834;52.516;10.528;2023-09-19T05:47:47;9.48;;;4.20;;
76107;SDS011;64834;52.516;10.528;2023-09-19T05:50:12;8.27;;;4.13;;
76107;SDS011;64834;52.516;10.528;2023-09-19T05:52:39;8.15;;;4.65;;
76107;SDS011;64834;52.516;10.528;2023-09-19T05:55:06;8.38;;;4.05;;
76107;SDS011;64834;52.516;10.528;2023-09-19T05:57:33;6.15;;;4.60;;
76107;SDS011;64834;52.516;10.528;2023-09-19T05:59:59;9.77;;;4.50;;
76107;SDS011;64834;52.516;10.528;2023-09-19T06:02:24;9.85;;;4.90;;
76107;SDS011;64834;52.516;10.528;2023-09-19T06:04:52;7.30;;;5.05;;
76107;SDS011;64834;52.516;10.528;2023-09-19T06:07:18;7.32;;;4.68;;
76107;SDS011;64834;52.516;10.528;2023-09-19T06:09:43;9.40;;;5.00;;
76107;SDS011;64834;52.516;10.528;2023-09-19T06:12:08;10.45;;;4.85;;
76107;SDS011;64834;52.516;10.528;2023-09-19T06:14:34;13.10;;;5.25;;
76107;SDS011;64834;52.516;10.528;2023-09-19T06:16:59;10.23;;;5.22;;
76107;SDS011;64834;52.516;10.528;2023-09-19T06:19:25;11.68;;;5.10;;
76107;SDS011;64834;52.516;10.528;2023-09-19T06:21:51;8.43;;;5.15;;
76107;SDS011;64834;52.516;10.528;2023-09-19T06:24:18;9.05;;;5.20;;
76107;SDS011;64834;52.516;10.528;2023-09-19T06:26:44;12.00;;;5.10;;
76107;SDS011;64834;52.516;10.528;2023-09-19T06:29:10;8.32;;;4.78;;
76107;SDS011;64834;52.516;10.528;2023-09-19T06:31:35;9.65;;;4.82;;
76107;SDS011;64834;52.516;10.528;2023-09-19T06:34:00;11.15;;;4.40;;
76107;SDS011;64834;52.516;10.528;2023-09-19T06:36:26;9.32;;;4.85;;
76107;SDS011;64834;52.516;10.528;2023-09-19T06:38:51;9.10;;;4.78;;
76107;SDS011;64834;52.516;10.528;2023-09-19T06:41:17;8.55;;;4.47;;
76107;SDS011;64834;52.516;10.528;2023-09-19T06:43:42;9.55;;;4.25;;
76107;SDS011;64834;52.516;10.528;2023-09-19T06:46:08;10.18;;;5.60;;
76107;SDS011;64834;52.516;10.528;2023-09-19T06:48:34;8.10;;;3.90;;
76107;SDS011;64834;52.516;10.528;2023-09-19T06:51:00;8.55;;;4.40;;
76107;SDS011;64834;52.516;10.528;2023-09-19T06:53:30;7.18;;;4.18;;
76107;SDS011;64834;52.516;10.528;2023-09-19T06:56:00;7.15;;;4.35;;
76107;SDS011;64834;52.516;10.528;2023-09-19T06:58:26;8.80;;;4.38;;
76107;SDS011;64834;52.516;10.528;2023-09-19T07:00:51;8.82;;;4.20;;
76107;SDS011;64834;52.516;10.528;2023-09-19T07:03:16;15.23;;;4.78;;
76107;SDS011;64834;52.516;10.528;2023-09-19T07:05:43;9.77;;;4.43;;
76107;SDS011;64834;52.516;10.528;2023-09-19T07:08:09;10.27;;;4.63;;
76107;SDS011;64834;52.516;10.528;2023-09-19T07:10:38;9.30;;;4.10;;
76107;SDS011;64834;52.516;10.528;2023-09-19T07:13:13;8.00;;;3.80;;
76107;SDS011;64834;52.516;10.528;2023-09-19T07:15:42;10.55;;;4.10;;
76107;SDS011;64834;52.516;10.528;2023-09-19T07:18:12;6.60;;;3.88;;
76107;SDS011;64834;52.516;10.528;2023-09-19T07:20:41;6.95;;;3.38;;
76107;SDS011;64834;52.516;10.528;2023-09-19T07:23:20;9.15;;;4.00;;
76107;SDS011;64834;52.516;10.528;2023-09-19T07:25:51;9.90;;;4.30;;
76107;SDS011;64834;52.516;10.528;2023-09-19T07:28:16;7.78;;;3.75;;
76107;SDS011;64834;52.516;10.528;2023-09-19T07:30:42;10.65;;;5.05;;
76107;SDS011;64834;52.516;10.528;2023-09-19T07:33:07;6.25;;;3.92;;
76107;SDS011;64834;52.516;10.528;2023-09-19T07:35:36;5.85;;;3.58;;
76107;SDS011;64834;52.516;10.528;2023-09-19T07:38:02;6.28;;;3.65;;
76107;SDS011;64834;52.516;10.528;2023-09-19T07:40:28;8.45;;;3.20;;
76107;SDS011;64834;52.516;10.528;2023-09-19T07:42:54;9.20;;;3.60;;
76107;SDS011;64834;52.516;10.528;2023-09-19T07:45:20;10.88;;;3.85;;
76107;SDS011;64834;52.516;10.528;2023-09-19T07:47:49;10.82;;;3.50;;
76107;SDS011;64834;52.516;10.528;2023-09-19T07:50:18;6.50;;;3.65;;
76107;SDS011;64834;52.516;10.528;2023-09-19T07:52:45;8.95;;;3.05;;
76107;SDS011;64834;52.516;10.528;2023-09-19T07:55:10;8.30;;;2.95;;
76107;SDS011;64834;52.516;10.528;2023-09-19T07:57:36;4.75;;;2.88;;
76107;SDS011;64834;52.516;10.528;2023-09-19T08:00:02;7.03;;;3.15;;
76107;SDS011;64834;52.516;10.528;2023-09-19T08:02:50;6.85;;;2.80;;
76107;SDS011;64834;52.516;10.528;2023-09-19T08:05:17;11.13;;;3.30;;
76107;SDS011;64834;52.516;10.528;2023-09-19T08:07:44;6.38;;;2.92;;
76107;SDS011;64834;52.516;10.528;2023-09-19T08:10:13;6.07;;;2.60;;
76107;SDS011;64834;52.516;10.528;2023-09-19T08:15:11;6.53;;;2.55;;
76107;SDS011;64834;52.516;10.528;2023-09-19T08:17:38;6.57;;;2.35;;
76107;SDS011;64834;52.516;10.528;2023-09-19T08:20:03;5.32;;;2.05;;
76107;SDS011;64834;52.516;10.528;2023-09-19T08:22:30;6.07;;;2.17;;
76107;SDS011;64834;52.516;10.528;2023-09-19T08:24:56;5.28;;;2.15;;
76107;SDS011;64834;52.516;10.528;2023-09-19T08:27:21;6.07;;;2.53;;
76107;SDS011;64834;52.516;10.528;2023-09-19T08:29:47;3.53;;;1.15;;
76107;SDS011;64834;52.516;10.528;2023-09-19T08:32:12;10.98;;;2.40;;
76107;SDS011;64834;52.516;10.528;2023-09-19T08:34:37;6.20;;;1.88;;
76107;SDS011;64834;52.516;10.528;2023-09-19T08:37:03;4.35;;;1.65;;
76107;SDS011;64834;52.516;10.528;2023-09-19T08:39:29;4.88;;;2.22;;
76107;SDS011;64834;52.516;10.528;2023-09-19T08:41:59;5.38;;;1.40;;
76107;SDS011;64834;52.516;10.528;2023-09-19T08:44:26;5.95;;;1.40;;
76107;SDS011;64834;52.516;10.528;2023-09-19T08:46:55;5.63;;;1.75;;
76107;SDS011;64834;52.516;10.528;2023-09-19T08:49:33;7.55;;;1.70;;
76107;SDS011;64834;52.516;10.528;2023-09-19T08:52:19;9.65;;;1.50;;
76107;SDS011;64834;52.516;10.528;2023-09-19T08:54:48;8.45;;;1.40;;
76107;SDS011;64834;52.516;10.528;2023-09-19T08:57:18;6.38;;;1.10;;
76107;SDS011;64834;52.516;10.528;2023-09-19T08:59:47;5.95;;;1.30;;
76107;SDS011;64834;52.516;10.528;2023-09-19T09:04:42;5.25;;;1.13;;
76107;SDS011;64834;52.516;10.528;2023-09-19T09:07:12;5.53;;;1.10;;
76107;SDS011;64834;52.516;10.528;2023-09-19T09:09:38;5.38;;;1.65;;
76107;SDS011;64834;52.516;10.528;2023-09-19T09:12:16;7.22;;;1.02;;
76107;SDS011;64834;52.516;10.528;2023-09-19T09:14:45;6.97;;;1.58;;
76107;SDS011;64834;52.516;10.528;2023-09-19T09:17:13;8.77;;;1.30;;
76107;SDS011;64834;52.516;10.528;2023-09-19T09:19:39;7.80;;;1.25;;
76107;SDS011;64834;52.516;10.528;2023-09-19T09:22:08;3.72;;;1.10;;
76107;SDS011;64834;52.516;10.528;2023-09-19T09:24:34;6.85;;;1.15;;
76107;SDS011;64834;52.516;10.528;2023-09-19T09:29:51;6.85;;;1.20;;
76107;SDS011;64834;52.516;10.528;2023-09-19T09:34:44;5.90;;;1.35;;
76107;SDS011;64834;52.516;10.528;2023-09-19T09:37:14;6.75;;;1.30;;
76107;SDS011;64834;52.516;10.528;2023-09-19T09:39:40;5.25;;;1.05;;
76107;SDS011;64834;52.516;10.528;2023-09-19T09:42:29;4.78;;;0.90;;
76107;SDS011;64834;52.516;10.528;2023-09-19T09:47:44;7.43;;;1.40;;
76107;SDS011;64834;52.516;10.528;2023-09-19T09:50:33;4.35;;;1.20;;
76107;SDS011;64834;52.516;10.528;2023-09-19T09:53:25;3.85;;;0.80;;
76107;SDS011;64834;52.516;10.528;2023-09-19T09:58:30;5.57;;;1.02;;
76107;SDS011;64834;52.516;10.528;2023-09-19T10:00:57;3.00;;;1.13;;
76107;SDS011;64834;52.516;10.528;2023-09-19T10:06:12;3.58;;;1.33;;
76107;SDS011;64834;52.516;10.528;2023-09-19T10:08:59;4.28;;;1.10;;
76107;SDS011;64834;52.516;10.528;2023-09-19T10:11:35;4.18;;;0.90;;
76107;SDS011;64834;52.516;10.528;2023-09-19T10:14:11;3.25;;;1.00;;
76107;SDS011;64834;52.516;10.528;2023-09-19T10:16:47;3.47;;;1.00;;
76107;SDS011;64834;52.516;10.528;2023-09-19T10:19:23;4.75;;;1.30;;
76107;SDS011;64834;52.516;10.528;2023-09-19T10:22:01;4.10;;;1.48;;
76107;SDS011;64834;52.516;10.528;2023-09-19T10:24:28;2.13;;;0.90;;
76107;SDS011;64834;52.516;10.528;2023-09-19T10:26:53;5.35;;;1.13;;
76107;SDS011;64834;52.516;10.528;2023-09-19T10:29:20;3.90;;;0.98;;
76107;SDS011;64834;52.516;10.528;2023-09-19T10:31:48;4.45;;;1.23;;
76107;SDS011;64834;52.516;10.528;2023-09-19T10:34:15;5.60;;;1.40;;
76107;SDS011;64834;52.516;10.528;2023-09-19T10:36:45;5.00;;;0.90;;
76107;SDS011;64834;52.516;10.528;2023-09-19T10:39:14;5.53;;;1.33;;
76107;SDS011;64834;52.516;10.528;2023-09-19T10:41:53;4.53;;;1.20;;
76107;SDS011;64834;52.516;10.528;2023-09-19T10:44:24;3.17;;;1.20;;
76107;SDS011;64834;52.516;10.528;2023-09-19T10:46:53;5.90;;;1.10;;
76107;SDS011;64834;52.516;10.528;2023-09-19T10:49:19;6.72;;;1.55;;
76107;SDS011;64834;52.516;10.528;2023-09-19T10:51:46;4.95;;;1.30;;
76107;SDS011;64834;52.516;10.528;2023-09-19T10:54:15;4.63;;;1.75;;
76107;SDS011;64834;52.516;10.528;2023-09-19T10:56:43;6.63;;;1.50;;
76107;SDS011;64834;52.516;10.528;2023-09-19T10:59:17;3.88;;;1.10;;
76107;SDS011;64834;52.516;10.528;2023-09-19T11:01:50;5.63;;;1.27;;
76107;SDS011;64834;52.516;10.528;2023-09-19T11:07:06;2.38;;;0.73;;
76107;SDS011;64834;52.516;10.528;2023-09-19T11:15:00;6.05;;;1.02;;
76107;SDS011;64834;52.516;10.528;2023-09-19T11:17:30;4.20;;;1.33;;
76107;SDS011;64834;52.516;10.528;2023-09-19T11:23:22;3.60;;;0.90;;
76107;SDS011;64834;52.516;10.528;2023-09-19T11:30:39;3.55;;;1.00;;
76107;SDS011;64834;52.516;10.528;2023-09-19T11:44:33;5.22;;;1.40;;
76107;SDS011;64834;52.516;10.528;2023-09-19T11:49:16;5.15;;;1.33;;
76107;SDS011;64834;52.516;10.528;2023-09-19T11:51:45;4.80;;;1.63;;
76107;SDS011;64834;52.516;10.528;2023-09-19T11:54:12;5.53;;;1.77;;
76107;SDS011;64834;52.516;10.528;2023-09-19T11:56:48;5.97;;;1.50;;
76107;SDS011;64834;52.516;10.528;2023-09-19T11:59:22;3.05;;;1.15;;
76107;SDS011;64834;52.516;10.528;2023-09-19T12:04:34;4.32;;;1.05;;
76107;SDS011;64834;52.516;10.528;2023-09-19T12:07:03;4.85;;;0.90;;
76107;SDS011;64834;52.516;10.528;2023-09-19T12:09:29;5.00;;;1.38;;
76107;SDS011;64834;52.516;10.528;2023-09-19T12:11:55;4.18;;;1.10;;
76107;SDS011;64834;52.516;10.528;2023-09-19T12:14:23;6.53;;;1.15;;
76107;SDS011;64834;52.516;10.528;2023-09-19T12:16:54;6.20;;;1.65;;
76107;SDS011;64834;52.516;10.528;2023-09-19T12:19:21;3.97;;;1.25;;
76107;SDS011;64834;52.516;10.528;2023-09-19T12:21:56;5.70;;;1.15;;
76107;SDS011;64834;52.516;10.528;2023-09-19T12:24:24;2.88;;;1.15;;
76107;SDS011;64834;52.516;10.528;2023-09-19T12:26:51;4.53;;;1.20;;
76107;SDS011;64834;52.516;10.528;2023-09-19T12:29:22;5.53;;;1.65;;
76107;SDS011;64834;52.516;10.528;2023-09-19T12:31:48;6.38;;;1.50;;
76107;SDS011;64834;52.516;10.528;2023-09-19T12:34:26;4.47;;;1.55;;
76107;SDS011;64834;52.516;10.528;2023-09-19T12:37:05;7.10;;;1.55;;
76107;SDS011;64834;52.516;10.528;2023-09-19T12:39:46;3.10;;;0.90;;
76107;SDS011;64834;52.516;10.528;2023-09-19T12:42:19;5.70;;;1.48;;
76107;SDS011;64834;52.516;10.528;2023-09-19T12:44:47;3.47;;;1.15;;
76107;SDS011;64834;52.516;10.528;2023-09-19T12:52:50;6.13;;;1.40;;
76107;SDS011;64834;52.516;10.528;2023-09-19T12:55:24;3.53;;;1.15;;
76107;SDS011;64834;52.516;10.528;2023-09-19T13:00:36;7.43;;;1.60;;
76107;SDS011;64834;52.516;10.528;2023-09-19T13:05:54;7.30;;;1.88;;
76107;SDS011;64834;52.516;10.528;2023-09-19T13:11:04;5.30;;;1.75;;
76107;SDS011;64834;52.516;10.528;2023-09-19T13:13:46;7.25;;;1.30;;
76107;SDS011;64834;52.516;10.528;2023-09-19T13:16:30;3.60;;;1.25;;
76107;SDS011;64834;52.516;10.528;2023-09-19T13:18:56;5.72;;;1.35;;
76107;SDS011;64834;52.516;10.528;2023-09-19T13:26:50;4.55;;;1.42;;
76107;SDS011;64834;52.516;10.528;2023-09-19T13:29:16;3.95;;;1.30;;
76107;SDS011;64834;52.516;10.528;2023-09-19T13:31:49;5.43;;;1.50;;
76107;SDS011;64834;52.516;10.528;2023-09-19T13:34:16;4.00;;;1.45;;
76107;SDS011;64834;52.516;10.528;2023-09-19T13:36:42;3.47;;;1.40;;
76107;SDS011;64834;52.516;10.528;2023-09-19T13:39:08;3.60;;;1.20;;
76107;SDS011;64834;52.516;10.528;2023-09-19T13:41:34;6.50;;;1.40;;
76107;SDS011;64834;52.516;10.528;2023-09-19T13:46:27;4.28;;;1.40;;
76107;SDS011;64834;52.516;10.528;2023-09-19T13:48:52;4.63;;;1.52;;
76107;SDS011;64834;52.516;10.528;2023-09-19T13:51:19;4.35;;;1.50;;
76107;SDS011;64834;52.516;10.528;2023-09-19T13:53:48;3.85;;;1.50;;
76107;SDS011;64834;52.516;10.528;2023-09-19T13:56:14;4.07;;;1.70;;
76107;SDS011;64834;52.516;10.528;2023-09-19T13:58:40;4.20;;;1.40;;
76107;SDS011;64834;52.516;10.528;2023-09-19T14:01:06;7.10;;;1.98;;
76107;SDS011;64834;52.516;10.528;2023-09-19T14:03:37;6.40;;;1.60;;
76107;SDS011;64834;52.516;10.528;2023-09-19T14:06:02;4.88;;;1.83;;
76107;SDS011;64834;52.516;10.528;2023-09-19T14:08:27;3.47;;;1.30;;
76107;SDS011;64834;52.516;10.528;2023-09-19T14:10:53;5.72;;;1.80;;
76107;SDS011;64834;52.516;10.528;2023-09-19T14:13:18;6.25;;;1.65;;
76107;SDS011;64834;52.516;10.528;2023-09-19T14:15:45;4.82;;;1.67;;
76107;SDS011;64834;52.516;10.528;2023-09-19T14:18:11;3.47;;;1.52;;
76107;SDS011;64834;52.516;10.528;2023-09-19T14:20:37;4.63;;;1.70;;
76107;SDS011;64834;52.516;10.528;2023-09-19T14:23:05;5.03;;;1.95;;
76107;SDS011;64834;52.516;10.528;2023-09-19T14:25:31;4.60;;;1.20;;
76107;SDS011;64834;52.516;10.528;2023-09-19T14:27:59;4.68;;;1.40;;
76107;SDS011;64834;52.516;10.528;2023-09-19T14:30:24;2.92;;;1.35;;
76107;SDS011;64834;52.516;10.528;2023-09-19T14:32:49;4.18;;;1.38;;
76107;SDS011;64834;52.516;10.528;2023-09-19T14:35:15;4.78;;;1.45;;
76107;SDS011;64834;52.516;10.528;2023-09-19T14:37:41;4.88;;;1.83;;
76107;SDS011;64834;52.516;10.528;2023-09-19T14:40:07;6.65;;;1.40;;
76107;SDS011;64834;52.516;10.528;2023-09-19T14:42:34;4.55;;;1.80;;
76107;SDS011;64834;52.516;10.528;2023-09-19T14:45:01;4.35;;;1.58;;
76107;SDS011;64834;52.516;10.528;2023-09-19T14:47:27;5.68;;;1.60;;
76107;SDS011;64834;52.516;10.528;2023-09-19T14:49:53;5.97;;;2.05;;
76107;SDS011;64834;52.516;10.528;2023-09-19T14:52:18;4.03;;;1.40;;
76107;SDS011;64834;52.516;10.528;2023-09-19T14:54:44;4.13;;;1.40;;
76107;SDS011;64834;52.516;10.528;2023-09-19T14:57:09;5.43;;;1.70;;
76107;SDS011;64834;52.516;10.528;2023-09-19T14:59:35;4.43;;;1.45;;
76107;SDS011;64834;52.516;10.528;2023-09-19T15:02:05;3.30;;;1.33;;
76107;SDS011;64834;52.516;10.528;2023-09-19T15:04:30;4.68;;;1.50;;
76107;SDS011;64834;52.516;10.528;2023-09-19T15:06:56;5.03;;;1.40;;
76107;SDS011;64834;52.516;10.528;2023-09-19T15:09:24;7.40;;;1.73;;
76107;SDS011;64834;52.516;10.528;2023-09-19T15:11:54;3.90;;;1.52;;
76107;SDS011;64834;52.516;10.528;2023-09-19T15:14:20;3.85;;;1.40;;
76107;SDS011;64834;52.516;10.528;2023-09-19T15:16:46;4.35;;;1.50;;
76107;SDS011;64834;52.516;10.528;2023-09-19T15:19:11;6.43;;;1.75;;
76107;SDS011;64834;52.516;10.528;2023-09-19T15:21:37;4.82;;;1.40;;
76107;SDS011;64834;52.516;10.528;2023-09-19T15:24:02;5.78;;;1.63;;
76107;SDS011;64834;52.516;10.528;2023-09-19T15:26:28;4.13;;;1.45;;
76107;SDS011;64834;52.516;10.528;2023-09-19T15:28:54;6.05;;;1.60;;
76107;SDS011;64834;52.516;10.528;2023-09-19T15:31:20;5.10;;;2.00;;
76107;SDS011;64834;52.516;10.528;2023-09-19T15:33:45;6.18;;;1.48;;
76107;SDS011;64834;52.516;10.528;2023-09-19T15:36:12;6.50;;;1.60;;
76107;SDS011;64834;52.516;10.528;2023-09-19T15:41:24;5.15;;;1.73;;
76107;SDS011;64834;52.516;10.528;2023-09-19T15:43:54;5.50;;;1.33;;
76107;SDS011;64834;52.516;10.528;2023-09-19T15:46:20;5.47;;;1.52;;
76107;SDS011;64834;52.516;10.528;2023-09-19T15:48:46;3.65;;;1.42;;
76107;SDS011;64834;52.516;10.528;2023-09-19T15:51:12;5.15;;;1.50;;
76107;SDS011;64834;52.516;10.528;2023-09-19T15:56:13;3.72;;;1.33;;
76107;SDS011;64834;52.516;10.528;2023-09-19T15:58:40;4.35;;;1.92;;
76107;SDS011;64834;52.516;10.528;2023-09-19T16:01:06;5.50;;;1.55;;
76107;SDS011;64834;52.516;10.528;2023-09-19T16:03:34;3.33;;;1.38;;
76107;SDS011;64834;52.516;10.528;2023-09-19T16:08:26;5.03;;;1.17;;
76107;SDS011;64834;52.516;10.528;2023-09-19T16:10:52;3.90;;;1.30;;
76107;SDS011;64834;52.516;10.528;2023-09-19T16:13:17;3.38;;;1.63;;
76107;SDS011;64834;52.516;10.528;2023-09-19T16:15:42;4.13;;;1.20;;